createdAt,value
2023-09-02T00:01:37.900Z,96148.78
2023-09-02T00:04:04.876Z,96145.63
2023-09-02T00:06:31.428Z,96150.00
2023-09-02T00:08:57.959Z,96153.09
2023-09-02T00:11:24.801Z,96155.28
2023-09-02T00:13:51.526Z,96158.69
2023-09-02T00:16:18.585Z,96156.38
2023-09-02T00:18:47.930Z,96155.41
2023-09-02T00:21:14.636Z,96162.34
2023-09-02T00:23:46.600Z,96160.59
2023-09-02T00:26:13.587Z,96151.00
2023-09-02T00:28:43.220Z,96162.44
2023-09-02T00:31:09.840Z,96159.47
2023-09-02T00:33:37.393Z,96161.16
2023-09-02T00:36:04.135Z,96160.84
2023-09-02T00:38:30.711Z,96166.59
2023-09-02T00:41:04.072Z,96162.50
2023-09-02T00:43:30.747Z,96164.66
2023-09-02T00:45:58.330Z,96165.59
2023-09-02T00:48:24.955Z,96168.59
2023-09-02T00:50:51.818Z,96167.00
2023-09-02T00:53:20.057Z,96159.47
2023-09-02T00:55:48.658Z,96159.28
2023-09-02T00:58:15.366Z,96161.47
2023-09-02T01:00:42.129Z,96153.31
2023-09-02T01:03:09.435Z,96154.22
2023-09-02T01:05:36.226Z,96143.84
2023-09-02T01:08:05.946Z,96153.44
2023-09-02T01:10:37.942Z,96161.78
2023-09-02T01:13:05.401Z,96164.72
2023-09-02T01:15:33.040Z,96157.53
2023-09-02T01:17:59.773Z,96153.72
2023-09-02T01:20:33.070Z,96165.03
2023-09-02T01:23:15.373Z,96154.03
2023-09-02T01:26:15.072Z,96160.03
2023-09-02T01:28:46.516Z,96164.44
2023-09-02T01:31:16.660Z,96162.38
2023-09-02T01:33:44.251Z,96162.19
2023-09-02T01:36:14.140Z,96169.09
2023-09-02T01:38:41.921Z,96159.34
2023-09-02T01:41:10.839Z,96162.97
2023-09-02T01:43:39.704Z,96150.41
2023-09-02T01:46:08.470Z,96164.97
2023-09-02T01:48:36.079Z,96158.88
2023-09-02T01:51:03.650Z,96157.59
2023-09-02T01:53:31.054Z,96160.06
2023-09-02T01:55:58.632Z,96159.59
2023-09-02T01:58:25.940Z,96164.09
2023-09-02T02:00:52.865Z,96156.81
2023-09-02T02:03:26.554Z,96141.47
2023-09-02T02:05:54.908Z,96157.47
2023-09-02T02:08:27.563Z,96162.00
2023-09-02T02:10:56.951Z,96166.06
2023-09-02T02:13:23.733Z,96143.75
2023-09-02T02:15:50.373Z,96158.03
2023-09-02T02:18:16.998Z,96157.41
2023-09-02T02:21:02.727Z,96162.53
2023-09-02T02:23:29.840Z,96172.88
2023-09-02T02:26:01.271Z,96177.19
2023-09-02T02:28:29.067Z,96163.06
2023-09-02T02:30:57.437Z,96171.50
2023-09-02T02:33:24.027Z,96175.44
2023-09-02T02:35:50.599Z,96173.97
2023-09-02T02:38:17.379Z,96163.47
2023-09-02T02:40:43.967Z,96176.94
2023-09-02T02:43:12.060Z,96161.81
2023-09-02T02:45:38.681Z,96181.56
2023-09-02T02:48:06.330Z,96177.91
2023-09-02T02:50:36.120Z,96175.09
2023-09-02T02:53:03.990Z,96183.34
2023-09-02T02:55:30.633Z,96188.19
2023-09-02T02:57:57.928Z,96183.94
2023-09-02T03:00:25.614Z,96171.28
2023-09-02T03:02:53.843Z,96175.19
2023-09-02T03:05:22.919Z,96176.00
2023-09-02T03:07:49.616Z,96177.56
2023-09-02T03:10:17.724Z,96176.28
2023-09-02T03:12:44.500Z,96179.25
2023-09-02T03:15:12.863Z,96179.06
2023-09-02T03:17:40.018Z,96178.72
2023-09-02T03:20:08.872Z,96176.47
2023-09-02T03:22:36.396Z,96180.63
2023-09-02T03:25:03.256Z,96193.88
2023-09-02T03:27:29.930Z,96189.75
2023-09-02T03:29:57.585Z,96187.22
2023-09-02T03:32:27.689Z,96188.31
2023-09-02T03:34:54.947Z,96188.91
2023-09-02T03:37:21.572Z,96191.84
2023-09-02T03:39:48.133Z,96197.75
2023-09-02T03:42:14.897Z,96187.41
2023-09-02T03:44:41.435Z,96189.59
2023-09-02T03:47:08.057Z,96175.84
2023-09-02T03:49:34.736Z,96177.69
2023-09-02T03:52:01.990Z,96172.22
2023-09-02T03:54:28.625Z,96171.72
2023-09-02T03:56:55.235Z,96171.63
2023-09-02T03:59:21.955Z,96180.16
2023-09-02T04:01:48.638Z,96183.91
2023-09-02T04:04:16.443Z,96182.91
2023-09-02T04:06:43.042Z,96191.47
2023-09-02T04:09:09.557Z,96192.53
2023-09-02T04:11:36.650Z,96196.56
2023-09-02T04:14:03.527Z,96198.72
2023-09-02T04:16:30.621Z,96200.31
2023-09-02T04:18:58.043Z,96197.75
2023-09-02T04:21:24.595Z,96206.19
2023-09-02T04:23:51.187Z,96206.19
2023-09-02T04:26:22.152Z,96209.13
2023-09-02T04:28:49.605Z,96206.47
2023-09-02T04:31:18.443Z,96206.47
2023-09-02T04:33:45.741Z,96205.03
2023-09-02T04:36:14.460Z,96211.28
2023-09-02T04:38:43.162Z,96206.00
2023-09-02T04:41:10.051Z,96206.09
2023-09-02T04:43:39.015Z,96219.38
2023-09-02T04:46:05.867Z,96214.66
2023-09-02T04:48:38.293Z,96222.88
2023-09-02T04:51:09.024Z,96221.09
2023-09-02T04:53:37.749Z,96225.34
2023-09-02T04:56:09.234Z,96221.00
2023-09-02T04:58:37.252Z,96215.81
2023-09-02T05:01:14.448Z,96221.38
2023-09-02T05:03:45.056Z,96223.75
2023-09-02T05:06:12.222Z,96226.91
2023-09-02T05:08:41.816Z,96231.13
2023-09-02T05:11:08.829Z,96230.56
2023-09-02T05:13:35.749Z,96232.13
2023-09-02T05:16:03.535Z,96240.38
2023-09-02T05:18:30.766Z,96233.69
2023-09-02T05:20:57.693Z,96238.41
2023-09-02T05:23:24.728Z,96233.59
2023-09-02T05:25:59.773Z,96231.94
2023-09-02T05:28:26.725Z,96242.47
2023-09-02T05:30:56.357Z,96234.72
2023-09-02T05:33:23.008Z,96244.72
2023-09-02T05:35:50.071Z,96245.69
2023-09-02T05:38:16.665Z,96248.28
2023-09-02T05:40:43.398Z,96254.56
2023-09-02T05:43:10.592Z,96255.25
2023-09-02T05:45:37.238Z,96255.94
2023-09-02T05:48:04.790Z,96257.41
2023-09-02T05:50:31.421Z,96254.13
2023-09-02T05:52:58.079Z,96255.31
2023-09-02T05:55:24.690Z,96251.19
2023-09-02T05:57:51.205Z,96250.00
2023-09-02T06:00:18.396Z,96248.22
2023-09-02T06:02:45.022Z,96256.06
2023-09-02T06:05:11.661Z,96262.09
2023-09-02T06:07:38.372Z,96254.31
2023-09-02T06:10:05.249Z,96262.13
2023-09-02T06:12:31.828Z,96262.00
2023-09-02T06:14:58.474Z,96261.31
2023-09-02T06:17:25.323Z,96255.16
2023-09-02T06:19:51.907Z,96257.06
2023-09-02T06:22:19.058Z,96255.72
2023-09-02T06:24:45.757Z,96260.09
2023-09-02T06:27:12.287Z,96269.84
2023-09-02T06:29:38.870Z,96265.41
2023-09-02T06:32:05.843Z,96268.59
2023-09-02T06:34:32.420Z,96264.59
2023-09-02T06:36:59.038Z,96256.31
2023-09-02T06:39:25.649Z,96262.91
2023-09-02T06:41:53.998Z,96270.16
2023-09-02T06:44:24.197Z,96271.59
2023-09-02T06:46:50.799Z,96261.72
2023-09-02T06:49:17.325Z,96272.25
2023-09-02T06:51:43.866Z,96273.66
2023-09-02T06:54:11.095Z,96276.94
2023-09-02T06:56:37.679Z,96276.50
2023-09-02T06:59:04.328Z,96289.81
2023-09-02T07:01:30.983Z,96292.00
2023-09-02T07:03:58.249Z,96290.31
2023-09-02T07:06:25.164Z,96288.59
2023-09-02T07:08:51.770Z,96288.13
2023-09-02T07:11:18.864Z,96294.84
2023-09-02T07:13:47.429Z,96288.84
2023-09-02T07:16:16.564Z,96281.16
2023-09-02T07:18:43.860Z,96284.06
2023-09-02T07:21:11.745Z,96280.09
2023-09-02T07:23:38.295Z,96288.13
2023-09-02T07:26:08.126Z,96289.50
2023-09-02T07:28:37.595Z,96285.50
2023-09-02T07:31:06.476Z,96293.72
2023-09-02T07:33:33.845Z,96291.13
2023-09-02T07:36:07.628Z,96292.16
2023-09-02T07:38:34.323Z,96289.09
2023-09-02T07:41:00.882Z,96287.75
2023-09-02T07:43:27.411Z,96287.31
2023-09-02T07:45:55.183Z,96300.22
2023-09-02T07:48:21.846Z,96291.78
2023-09-02T07:50:48.454Z,96298.50
2023-09-02T07:53:15.459Z,96296.13
2023-09-02T07:55:42.286Z,96296.09
2023-09-02T07:58:09.071Z,96305.47
2023-09-02T08:00:36.870Z,96298.88
2023-09-02T08:03:04.605Z,96302.25
2023-09-02T08:05:31.267Z,96303.63
2023-09-02T08:07:58.215Z,96308.88
2023-09-02T08:10:24.843Z,96315.44
2023-09-02T08:12:51.909Z,96309.19
2023-09-02T08:15:18.486Z,96320.84
2023-09-02T08:17:46.017Z,96309.81
2023-09-02T08:20:12.743Z,96307.69
2023-09-02T08:22:40.699Z,96307.25
2023-09-02T08:25:08.126Z,96300.81
2023-09-02T08:27:34.894Z,96315.88
2023-09-02T08:30:02.075Z,96320.03
2023-09-02T08:32:32.697Z,96313.13
2023-09-02T08:34:59.495Z,96318.13
2023-09-02T08:37:26.192Z,96309.19
2023-09-02T08:39:52.989Z,96316.69
2023-09-02T08:42:21.821Z,96315.88
2023-09-02T08:44:49.449Z,96324.63
2023-09-02T08:47:20.818Z,96320.66
2023-09-02T08:49:47.714Z,96313.25
2023-09-02T08:52:14.708Z,96332.47
2023-09-02T08:54:42.789Z,96327.66
2023-09-02T08:57:12.379Z,96335.16
2023-09-02T08:59:39.925Z,96343.44
2023-09-02T09:02:07.780Z,96338.06
2023-09-02T09:04:35.122Z,96342.53
2023-09-02T09:07:04.537Z,96335.50
2023-09-02T09:09:35.390Z,96345.56
2023-09-02T09:12:03.299Z,96344.97
2023-09-02T09:14:33.466Z,96343.53
2023-09-02T09:17:00.582Z,96343.72
2023-09-02T09:19:28.989Z,96343.16
2023-09-02T09:21:56.240Z,96333.78
2023-09-02T09:24:23.147Z,96329.41
2023-09-02T09:26:50.469Z,96339.69
2023-09-02T09:29:18.837Z,96342.69
2023-09-02T09:31:45.971Z,96341.25
2023-09-02T09:34:12.928Z,96346.28
2023-09-02T09:36:40.455Z,96342.16
2023-09-02T09:39:09.126Z,96337.91
2023-09-02T09:41:36.515Z,96343.03
2023-09-02T09:44:08.117Z,96340.78
2023-09-02T09:46:36.335Z,96336.31
2023-09-02T09:49:04.136Z,96335.75
2023-09-02T09:51:31.064Z,96329.34
2023-09-02T09:53:57.955Z,96327.66
2023-09-02T09:56:25.450Z,96332.44
2023-09-02T09:58:52.508Z,96329.50
2023-09-02T10:01:23.794Z,96317.44
2023-09-02T10:03:52.051Z,96329.88
2023-09-02T10:06:22.293Z,96326.50
2023-09-02T10:09:00.548Z,96328.56
2023-09-02T10:11:27.671Z,96328.78
2023-09-02T10:13:54.697Z,96323.84
2023-09-02T10:16:23.348Z,96321.25
2023-09-02T10:18:53.435Z,96321.69
2023-09-02T10:21:21.821Z,96327.00
2023-09-02T10:23:51.065Z,96325.38
2023-09-02T10:26:37.886Z,96323.78
2023-09-02T10:29:09.642Z,96330.56
2023-09-02T10:31:43.755Z,96322.66
2023-09-02T10:34:29.236Z,96325.94
2023-09-02T10:37:03.816Z,96323.06
2023-09-02T10:39:47.389Z,96314.78
2023-09-02T10:42:15.619Z,96329.09
2023-09-02T10:44:44.072Z,96321.94
2023-09-02T10:47:10.732Z,96323.53
2023-09-02T10:49:38.294Z,96326.63
2023-09-02T10:52:06.371Z,96315.28
2023-09-02T10:55:05.060Z,96331.22
2023-09-02T10:57:32.874Z,96329.75
2023-09-02T11:00:15.748Z,96329.25
2023-09-02T11:02:43.558Z,96330.31
2023-09-02T11:05:10.694Z,96324.94
2023-09-02T11:07:40.353Z,96324.56
2023-09-02T11:10:09.488Z,96328.47
2023-09-02T11:13:04.656Z,96333.56
2023-09-02T11:15:32.692Z,96323.31
2023-09-02T11:18:26.951Z,96331.31
2023-09-02T11:20:53.588Z,96326.13
2023-09-02T11:23:24.376Z,96331.72
2023-09-02T11:26:05.323Z,96320.09
2023-09-02T11:28:32.863Z,96320.25
2023-09-02T11:31:04.020Z,96333.56
2023-09-02T11:33:30.976Z,96327.53
2023-09-02T11:36:07.925Z,96330.47
2023-09-02T11:38:35.342Z,96331.38
2023-09-02T11:41:02.652Z,96335.19
2023-09-02T11:43:32.482Z,96342.66
2023-09-02T11:46:01.489Z,96343.94
2023-09-02T11:48:29.365Z,96340.81
2023-09-02T11:50:59.872Z,96337.66
2023-09-02T11:53:31.781Z,96349.75
2023-09-02T11:55:58.912Z,96340.38
2023-09-02T11:58:26.661Z,96340.56
2023-09-02T12:00:53.247Z,96331.53
2023-09-02T12:03:29.477Z,96328.38
2023-09-02T12:05:59.035Z,96339.53
2023-09-02T12:08:27.110Z,96328.53
2023-09-02T12:10:54.800Z,96334.31
2023-09-02T12:13:22.025Z,96331.16
2023-09-02T12:15:53.034Z,96328.31
2023-09-02T12:18:21.028Z,96325.06
2023-09-02T12:20:48.425Z,96325.63
2023-09-02T12:23:16.922Z,96320.25
2023-09-02T12:26:01.019Z,96325.63
2023-09-02T12:28:30.526Z,96312.47
2023-09-02T12:30:57.364Z,96318.75
2023-09-02T12:33:25.582Z,96317.47
2023-09-02T12:35:52.260Z,96315.16
2023-09-02T12:38:22.028Z,96317.84
2023-09-02T12:40:56.208Z,96305.03
2023-09-02T12:43:29.980Z,96311.06
2023-09-02T12:45:57.795Z,96308.28
2023-09-02T12:48:25.378Z,96308.63
2023-09-02T12:50:51.948Z,96306.66
2023-09-02T12:53:18.821Z,96305.09
2023-09-02T12:55:45.639Z,96305.81
2023-09-02T12:58:12.479Z,96297.38
2023-09-02T13:00:39.912Z,96309.78
2023-09-02T13:03:06.707Z,96308.28
2023-09-02T13:05:35.114Z,96315.56
2023-09-02T13:08:01.722Z,96314.13
2023-09-02T13:10:28.427Z,96312.66
2023-09-02T13:12:55.264Z,96315.50
2023-09-02T13:15:24.351Z,96311.47
2023-09-02T13:17:51.222Z,96318.41
2023-09-02T13:20:18.258Z,96315.31
2023-09-02T13:22:47.343Z,96321.13
2023-09-02T13:25:16.290Z,96316.78
2023-09-02T13:27:43.451Z,96324.03
2023-09-02T13:30:11.246Z,96327.47
2023-09-02T13:32:39.908Z,96311.53
2023-09-02T13:35:18.471Z,96319.97
2023-09-02T13:37:48.533Z,96318.00
2023-09-02T13:40:15.021Z,96323.97
2023-09-02T13:42:46.142Z,96309.69
2023-09-02T13:45:25.617Z,96319.53
2023-09-02T13:47:53.148Z,96329.38
2023-09-02T13:50:21.431Z,96330.91
2023-09-02T13:52:52.172Z,96333.59
2023-09-02T13:55:21.248Z,96328.13
2023-09-02T13:57:48.282Z,96328.41
2023-09-02T14:00:33.871Z,96346.47
2023-09-02T14:03:01.199Z,96337.88
2023-09-02T14:05:27.977Z,96342.50
2023-09-02T14:10:30.840Z,96339.41
2023-09-02T14:13:05.353Z,96330.09
2023-09-02T14:15:32.453Z,96346.47
2023-09-02T14:17:59.149Z,96334.72
2023-09-02T14:20:25.791Z,96348.66
2023-09-02T14:22:52.413Z,96341.38
2023-09-02T14:25:19.539Z,96344.72
2023-09-02T14:27:46.266Z,96341.25
2023-09-02T14:30:13.962Z,96338.25
2023-09-02T14:32:40.579Z,96345.66
2023-09-02T14:35:07.951Z,96344.56
2023-09-02T14:37:34.573Z,96351.47
2023-09-02T14:42:27.807Z,96348.28
2023-09-02T14:44:58.188Z,96349.75
2023-09-02T14:47:50.679Z,96351.34
2023-09-02T14:50:17.343Z,96344.13
2023-09-02T14:52:45.380Z,96353.03
2023-09-02T14:55:16.393Z,96345.75
2023-09-02T14:57:43.532Z,96347.94
2023-09-02T15:00:14.347Z,96359.00
2023-09-02T15:02:42.455Z,96347.53
2023-09-02T15:05:20.329Z,96346.25
2023-09-02T15:07:47.385Z,96341.28
2023-09-02T15:10:27.924Z,96350.56
2023-09-02T15:12:56.232Z,96356.53
2023-09-02T15:15:25.596Z,96361.59
2023-09-02T15:20:27.562Z,96357.75
2023-09-02T15:22:56.733Z,96363.88
2023-09-02T15:25:26.669Z,96363.06
2023-09-02T15:27:54.386Z,96363.56
2023-09-02T15:30:21.354Z,96366.56
2023-09-02T15:32:58.243Z,96365.13
2023-09-02T15:35:25.044Z,96362.78
2023-09-02T15:37:51.639Z,96361.59
2023-09-02T15:40:28.713Z,96365.19
2023-09-02T15:43:03.788Z,96360.06
2023-09-02T15:45:30.848Z,96371.56
2023-09-02T15:47:57.796Z,96375.41
2023-09-02T15:50:24.768Z,96378.88
2023-09-02T15:52:52.755Z,96382.72
2023-09-02T15:55:23.828Z,96387.31
2023-09-02T15:57:52.695Z,96387.66
2023-09-02T16:00:21.064Z,96377.59
2023-09-02T16:02:48.167Z,96378.41
2023-09-02T16:05:15.708Z,96384.94
2023-09-02T16:07:42.394Z,96379.13
2023-09-02T16:10:09.576Z,96381.09
2023-09-02T16:12:36.210Z,96379.03
2023-09-02T16:15:02.956Z,96390.88
2023-09-02T16:17:29.669Z,96385.38
2023-09-02T16:19:56.414Z,96394.94
2023-09-02T16:22:23.507Z,96394.69
2023-09-02T16:24:52.886Z,96392.69
2023-09-02T16:27:19.697Z,96396.81
2023-09-02T16:29:48.410Z,96392.13
2023-09-02T16:32:15.563Z,96395.88
2023-09-02T16:34:46.149Z,96401.59
2023-09-02T16:37:16.375Z,96400.41
2023-09-02T16:39:43.785Z,96395.28
2023-09-02T16:42:10.552Z,96399.91
2023-09-02T16:44:37.157Z,96393.66
2023-09-02T16:47:04.734Z,96398.19
2023-09-02T16:49:31.809Z,96402.72
2023-09-02T16:52:04.330Z,96393.34
2023-09-02T16:54:31.681Z,96393.97
2023-09-02T16:57:00.608Z,96388.97
2023-09-02T16:59:29.707Z,96398.44
2023-09-02T17:01:57.465Z,96400.34
2023-09-02T17:04:24.840Z,96402.13
2023-09-02T17:06:51.590Z,96407.84
2023-09-02T17:09:19.819Z,96407.31
2023-09-02T17:11:49.604Z,96407.91
2023-09-02T17:14:16.765Z,96412.34
2023-09-02T17:16:48.506Z,96411.81
2023-09-02T17:19:18.656Z,96407.38
2023-09-02T17:21:46.269Z,96406.81
2023-09-02T17:24:20.126Z,96407.41
2023-09-02T17:26:46.688Z,96416.84
2023-09-02T17:29:16.795Z,96419.69
2023-09-02T17:31:43.617Z,96425.69
2023-09-02T17:34:10.282Z,96433.09
2023-09-02T17:36:36.817Z,96420.63
2023-09-02T17:39:04.284Z,96425.00
2023-09-02T17:41:30.843Z,96425.59
2023-09-02T17:43:57.461Z,96430.00
2023-09-02T17:46:24.173Z,96423.63
2023-09-02T17:48:50.836Z,96424.19
2023-09-02T17:51:17.413Z,96427.13
2023-09-02T17:53:44.136Z,96426.84
2023-09-02T17:56:10.759Z,96428.19
2023-09-02T17:58:37.294Z,96430.66
2023-09-02T18:01:03.824Z,96428.19
2023-09-02T18:03:30.625Z,96423.06
2023-09-02T18:05:58.448Z,96413.59
2023-09-02T18:08:34.315Z,96419.28
2023-09-02T18:11:08.426Z,96415.28
2023-09-02T18:13:35.029Z,96424.63
2023-09-02T18:16:02.421Z,96428.25
2023-09-02T18:18:29.054Z,96430.94
2023-09-02T18:20:55.681Z,96439.53
2023-09-02T18:23:22.244Z,96439.72
2023-09-02T18:25:48.840Z,96430.22
2023-09-02T18:28:15.434Z,96436.94
2023-09-02T18:30:41.986Z,96433.44
2023-09-02T18:33:08.518Z,96443.41
2023-09-02T18:35:35.098Z,96452.31
2023-09-02T18:38:01.706Z,96450.94
2023-09-02T18:40:28.305Z,96451.81
2023-09-02T18:42:54.876Z,96456.88
2023-09-02T18:45:21.387Z,96447.81
2023-09-02T18:47:47.935Z,96458.88
2023-09-02T18:50:14.537Z,96460.50
2023-09-02T18:52:41.081Z,96468.53
2023-09-02T18:55:07.992Z,96468.88
2023-09-02T18:57:34.608Z,96455.88
2023-09-02T19:00:01.173Z,96464.22
2023-09-02T19:02:28.219Z,96466.22
2023-09-02T19:04:54.951Z,96461.25
2023-09-02T19:07:21.576Z,96463.94
2023-09-02T19:09:48.108Z,96468.47
2023-09-02T19:12:15.037Z,96475.91
2023-09-02T19:14:41.587Z,96475.97
2023-09-02T19:17:08.131Z,96472.53
2023-09-02T19:19:34.638Z,96473.97
2023-09-02T19:22:01.230Z,96477.94
2023-09-02T19:24:27.926Z,96482.50
2023-09-02T19:26:54.855Z,96476.91
2023-09-02T19:29:21.420Z,96489.03
2023-09-02T19:31:47.945Z,96484.81
2023-09-02T19:34:16.087Z,96479.47
2023-09-02T19:36:44.568Z,96487.84
2023-09-02T19:39:20.820Z,96491.16
2023-09-02T19:41:48.982Z,96494.91
2023-09-02T19:44:16.090Z,96482.16
2023-09-02T19:46:44.741Z,96483.94
2023-09-02T19:49:12.889Z,96485.72
2023-09-02T19:51:39.439Z,96495.78
2023-09-02T19:54:06.107Z,96499.25
2023-09-02T19:56:32.678Z,96493.16
2023-09-02T19:59:03.295Z,96497.56
2023-09-02T20:01:31.485Z,96503.84
2023-09-02T20:03:58.331Z,96504.97
2023-09-02T20:06:24.993Z,96509.06
2023-09-02T20:08:51.760Z,96500.44
2023-09-02T20:11:18.365Z,96505.31
2023-09-02T20:13:44.859Z,96514.59
2023-09-02T20:16:11.580Z,96514.91
2023-09-02T20:18:38.399Z,96511.00
2023-09-02T20:21:05.038Z,96511.63
2023-09-02T20:23:31.545Z,96519.50
2023-09-02T20:25:58.217Z,96521.09
2023-09-02T20:28:24.811Z,96528.75
2023-09-02T20:30:53.244Z,96531.78
2023-09-02T20:33:19.887Z,96526.91
2023-09-02T20:35:46.441Z,96527.53
2023-09-02T20:38:12.980Z,96528.78
2023-09-02T20:40:39.622Z,96531.75
2023-09-02T20:43:09.017Z,96522.66
2023-09-02T20:45:41.749Z,96519.03
2023-09-02T20:48:09.748Z,96528.75
2023-09-02T20:50:40.917Z,96515.56
2023-09-02T20:53:08.439Z,96526.38
2023-09-02T20:55:35.134Z,96533.94
2023-09-02T20:58:01.687Z,96530.34
2023-09-02T21:00:28.798Z,96540.56
2023-09-02T21:02:58.667Z,96540.69
2023-09-02T21:05:28.193Z,96537.72
2023-09-02T21:07:54.807Z,96537.25
2023-09-02T21:10:21.362Z,96551.69
2023-09-02T21:12:47.992Z,96546.97
2023-09-02T21:15:14.656Z,96542.41
2023-09-02T21:17:41.436Z,96553.22
2023-09-02T21:20:10.042Z,96552.13
2023-09-02T21:22:36.962Z,96559.38
2023-09-02T21:25:07.279Z,96554.00
2023-09-02T21:27:34.456Z,96557.28
2023-09-02T21:30:01.775Z,96569.22
2023-09-02T21:32:29.521Z,96556.63
2023-09-02T21:34:57.623Z,96560.41
2023-09-02T21:37:24.608Z,96568.56
2023-09-02T21:39:51.729Z,96563.22
2023-09-02T21:42:20.139Z,96555.84
2023-09-02T21:44:46.728Z,96558.97
2023-09-02T21:47:13.289Z,96564.13
2023-09-02T21:49:39.840Z,96561.75
2023-09-02T21:52:06.663Z,96559.72
2023-09-02T21:54:33.251Z,96565.69
2023-09-02T21:56:59.959Z,96569.75
2023-09-02T21:59:26.555Z,96572.72
2023-09-02T22:01:53.145Z,96551.97
2023-09-02T22:04:19.739Z,96561.09
2023-09-02T22:06:46.315Z,96572.66
2023-09-02T22:09:12.924Z,96559.91
2023-09-02T22:11:39.509Z,96565.53
2023-09-02T22:14:06.093Z,96559.41
2023-09-02T22:16:33.031Z,96558.31
2023-09-02T22:19:08.106Z,96556.72
2023-09-02T22:21:38.780Z,96569.91
2023-09-02T22:24:06.486Z,96570.19
2023-09-02T22:26:33.030Z,96555.75
2023-09-02T22:29:00.567Z,96563.44
2023-09-02T22:31:27.161Z,96560.59
2023-09-02T22:33:53.744Z,96551.94
2023-09-02T22:36:20.308Z,96540.31
2023-09-02T22:41:16.359Z,96557.75
2023-09-02T22:43:42.964Z,96557.75
2023-09-02T22:46:10.761Z,96563.06
2023-09-02T22:48:37.642Z,96561.22
2023-09-02T22:51:05.352Z,96561.47
2023-09-02T22:53:32.732Z,96565.53
2023-09-02T22:55:59.671Z,96562.38
2023-09-02T22:58:26.278Z,96548.38
2023-09-02T23:00:52.893Z,96551.84
2023-09-02T23:03:21.042Z,96548.81
2023-09-02T23:05:48.381Z,96540.00
2023-09-02T23:08:15.034Z,96541.09
2023-09-02T23:10:43.785Z,96546.28
2023-09-02T23:13:10.318Z,96556.81
2023-09-02T23:15:36.914Z,96547.19
2023-09-02T23:18:03.754Z,96559.78
2023-09-02T23:20:30.525Z,96561.41
2023-09-02T23:22:57.582Z,96556.84
2023-09-02T23:25:27.188Z,96558.69
2023-09-02T23:27:53.814Z,96550.03
2023-09-02T23:30:20.903Z,96561.78
2023-09-02T23:32:49.743Z,96551.75
2023-09-02T23:35:16.397Z,96555.78
2023-09-02T23:37:43.177Z,96544.47
2023-09-02T23:40:11.125Z,96551.06
2023-09-02T23:42:38.870Z,96549.00
2023-09-02T23:45:06.169Z,96555.13
2023-09-02T23:47:32.769Z,96548.53
2023-09-02T23:49:59.374Z,96548.81
2023-09-02T23:52:26.184Z,96551.28
2023-09-02T23:54:52.829Z,96544.53
2023-09-02T23:57:19.414Z,96547.78
2023-09-02T23:59:46.949Z,96552.78
